createdAt,value
2023-03-31T00:00:19.442Z,99881.00
2023-03-31T00:02:49.430Z,99888.00
2023-03-31T00:05:21.563Z,99880.00
2023-03-31T00:07:51.486Z,99875.00
2023-03-31T00:10:22.593Z,99873.00
2023-03-31T00:12:52.577Z,99872.00
2023-03-31T00:15:27.358Z,99869.00
2023-03-31T00:18:00.764Z,99872.00
2023-03-31T00:20:33.537Z,99872.00
2023-03-31T00:23:06.648Z,99873.00
2023-03-31T00:25:36.638Z,99874.00
2023-03-31T00:28:06.721Z,99868.00
2023-03-31T00:30:39.367Z,99866.00
2023-03-31T00:33:09.639Z,99862.00
2023-03-31T00:35:40.526Z,99861.00
2023-03-31T00:38:14.036Z,99858.00
2023-03-31T00:40:49.546Z,99849.00
2023-03-31T00:43:32.553Z,99848.00
2023-03-31T00:46:20.121Z,99844.00
2023-03-31T00:48:54.343Z,99850.00
2023-03-31T00:51:26.236Z,99848.00
2023-03-31T00:54:02.552Z,99843.00
2023-03-31T00:56:36.455Z,99845.00
2023-03-31T00:59:13.309Z,99847.00
2023-03-31T01:01:50.694Z,99838.00
2023-03-31T01:04:22.876Z,99829.00
2023-03-31T01:07:01.071Z,99837.00
2023-03-31T01:09:35.298Z,99835.00
2023-03-31T01:12:09.274Z,99828.00
2023-03-31T01:14:39.720Z,99832.00
2023-03-31T01:17:19.303Z,99821.00
2023-03-31T01:20:11.902Z,99820.00
2023-03-31T01:23:21.342Z,99811.00
2023-03-31T01:26:32.081Z,99808.00
2023-03-31T01:29:09.557Z,99800.00
2023-03-31T01:32:27.120Z,99796.00
2023-03-31T01:35:40.385Z,99796.00
2023-03-31T01:38:53.904Z,99797.00
2023-03-31T01:41:40.941Z,99790.00
2023-03-31T01:44:21.675Z,99782.00
2023-03-31T01:46:59.842Z,99786.00
2023-03-31T01:49:37.445Z,99788.00
2023-03-31T01:52:14.117Z,99788.00
2023-03-31T01:54:53.124Z,99783.00
2023-03-31T01:57:30.854Z,99778.00
2023-03-31T02:00:08.927Z,99781.00
2023-03-31T02:02:43.447Z,99769.00
2023-03-31T02:05:18.229Z,99771.00
2023-03-31T02:07:51.269Z,99782.00
2023-03-31T02:10:22.729Z,99776.00
2023-03-31T02:12:57.420Z,99764.00
2023-03-31T02:15:29.908Z,99768.00
2023-03-31T02:18:03.823Z,99757.00
2023-03-31T02:20:34.568Z,99758.00
2023-03-31T02:23:05.769Z,99755.00
2023-03-31T02:25:41.671Z,99749.00
2023-03-31T02:28:18.075Z,99748.00
2023-03-31T02:30:55.077Z,99741.00
2023-03-31T02:33:25.187Z,99745.00
2023-03-31T02:35:55.670Z,99742.00
2023-03-31T02:38:25.740Z,99734.00
2023-03-31T02:40:55.940Z,99731.00
2023-03-31T02:43:28.489Z,99731.00
2023-03-31T02:45:58.638Z,99734.00
2023-03-31T02:48:32.800Z,99727.00
2023-03-31T02:51:34.234Z,99724.00
2023-03-31T02:54:56.514Z,99729.00
2023-03-31T02:58:05.639Z,99716.00
2023-03-31T03:00:57.108Z,99714.00
2023-03-31T03:03:40.806Z,99714.00
2023-03-31T03:06:24.021Z,99712.00
2023-03-31T03:09:22.764Z,99711.00
2023-03-31T03:12:02.392Z,99712.00
2023-03-31T03:14:39.139Z,99706.00
2023-03-31T03:17:15.336Z,99704.00
2023-03-31T03:19:45.996Z,99704.00
2023-03-31T03:22:15.912Z,99696.00
2023-03-31T03:24:46.074Z,99698.00
2023-03-31T03:27:16.148Z,99698.00
2023-03-31T03:29:46.126Z,99698.00
2023-03-31T03:32:18.694Z,99698.00
2023-03-31T03:34:48.687Z,99687.00
2023-03-31T03:37:18.709Z,99683.00
2023-03-31T03:39:48.885Z,99691.00
2023-03-31T03:42:18.834Z,99690.00
2023-03-31T03:44:48.888Z,99684.00
2023-03-31T03:47:21.438Z,99681.00
2023-03-31T03:49:51.648Z,99673.00
2023-03-31T03:52:21.657Z,99674.00
2023-03-31T03:54:51.662Z,99681.00
2023-03-31T03:57:21.754Z,99667.00
2023-03-31T03:59:51.758Z,99670.00
2023-03-31T04:02:26.891Z,99660.00
2023-03-31T04:04:58.333Z,99659.00
2023-03-31T04:07:28.328Z,99658.00
2023-03-31T04:09:58.263Z,99645.00
2023-03-31T04:12:28.266Z,99646.00
2023-03-31T04:14:58.195Z,99647.00
2023-03-31T04:17:37.021Z,99641.00
2023-03-31T04:20:11.897Z,99645.00
2023-03-31T04:22:47.153Z,99643.00
2023-03-31T04:25:17.653Z,99644.00
2023-03-31T04:27:50.959Z,99654.00
2023-03-31T04:30:25.389Z,99640.00
2023-03-31T04:33:00.502Z,99627.00
2023-03-31T04:35:42.913Z,99631.00
2023-03-31T04:38:12.989Z,99626.00
2023-03-31T04:40:42.922Z,99624.00
2023-03-31T04:43:12.883Z,99620.00
2023-03-31T04:45:42.871Z,99615.00
2023-03-31T04:48:15.744Z,99613.00
2023-03-31T04:50:45.889Z,99611.00
2023-03-31T04:53:15.822Z,99610.00
2023-03-31T04:55:45.735Z,99611.00
2023-03-31T04:58:15.703Z,99602.00
2023-03-31T05:00:45.791Z,99606.00
2023-03-31T05:03:18.628Z,99597.00
2023-03-31T05:05:48.872Z,99600.00
2023-03-31T05:08:18.835Z,99590.00
2023-03-31T05:10:48.759Z,99597.00
2023-03-31T05:13:18.777Z,99588.00
2023-03-31T05:15:50.924Z,99576.00
2023-03-31T05:18:23.458Z,99586.00
2023-03-31T05:20:53.434Z,99584.00
2023-03-31T05:23:23.436Z,99576.00
2023-03-31T05:25:53.367Z,99569.00
2023-03-31T05:28:23.308Z,99568.00
2023-03-31T05:30:53.272Z,99565.00
2023-03-31T05:33:25.774Z,99555.00
2023-03-31T05:35:55.982Z,99550.00
2023-03-31T05:38:28.963Z,99566.00
2023-03-31T05:40:59.095Z,99555.00
2023-03-31T05:43:29.110Z,99550.00
2023-03-31T05:45:59.136Z,99560.00
2023-03-31T05:48:32.502Z,99553.00
2023-03-31T05:51:03.759Z,99547.00
2023-03-31T05:53:34.298Z,99553.00
2023-03-31T05:56:07.331Z,99544.00
2023-03-31T05:58:38.500Z,99544.00
2023-03-31T06:01:11.680Z,99536.00
2023-03-31T06:03:45.126Z,99535.00
2023-03-31T06:06:16.620Z,99535.00
2023-03-31T06:08:48.664Z,99535.00
2023-03-31T06:11:21.175Z,99530.00
2023-03-31T06:13:51.844Z,99522.00
2023-03-31T06:16:22.229Z,99522.00
2023-03-31T06:18:55.940Z,99511.00
2023-03-31T06:21:25.951Z,99519.00
2023-03-31T06:23:58.405Z,99519.00
2023-03-31T06:26:28.480Z,99521.00
2023-03-31T06:28:58.474Z,99512.00
2023-03-31T06:31:29.122Z,99507.00
2023-03-31T06:34:01.854Z,99505.00
2023-03-31T06:36:31.845Z,99503.00
2023-03-31T06:39:01.808Z,99503.00
2023-03-31T06:41:31.774Z,99503.00
2023-03-31T06:44:01.718Z,99502.00
2023-03-31T06:46:31.822Z,99497.00
2023-03-31T06:49:04.555Z,99485.00
2023-03-31T06:51:34.519Z,99488.00
2023-03-31T06:54:04.464Z,99489.00
2023-03-31T06:56:34.746Z,99490.00
2023-03-31T06:59:04.704Z,99488.00
2023-03-31T07:01:37.571Z,99495.00
2023-03-31T07:04:10.404Z,99484.00
2023-03-31T07:06:40.421Z,99477.00
2023-03-31T07:09:10.555Z,99480.00
2023-03-31T07:11:40.515Z,99482.00
2023-03-31T07:14:10.642Z,99488.00
2023-03-31T07:16:40.644Z,99495.00
2023-03-31T07:19:13.672Z,99483.00
2023-03-31T07:21:43.604Z,99478.00
2023-03-31T07:24:13.600Z,99483.00
2023-03-31T07:26:43.586Z,99473.00
2023-03-31T07:29:13.544Z,99468.00
2023-03-31T07:31:43.549Z,99459.00
2023-03-31T07:34:16.155Z,99462.00
2023-03-31T07:36:46.154Z,99451.00
2023-03-31T07:39:16.281Z,99454.00
2023-03-31T07:41:46.206Z,99456.00
2023-03-31T07:44:16.235Z,99449.00
2023-03-31T07:46:46.308Z,99452.00
2023-03-31T07:49:18.864Z,99444.00
2023-03-31T07:51:48.794Z,99438.00
2023-03-31T07:54:18.781Z,99438.00
2023-03-31T07:56:48.752Z,99435.00
2023-03-31T07:59:18.736Z,99437.00
2023-03-31T08:01:49.038Z,99435.00
2023-03-31T08:04:21.761Z,99430.00
2023-03-31T08:06:51.772Z,99428.00
2023-03-31T08:09:22.442Z,99420.00
2023-03-31T08:11:52.715Z,99414.00
2023-03-31T08:14:34.124Z,99421.00
2023-03-31T08:17:10.244Z,99414.00
2023-03-31T08:19:43.126Z,99416.00
2023-03-31T08:22:13.120Z,99411.00
2023-03-31T08:24:43.078Z,99411.00
2023-03-31T08:27:13.034Z,99403.00
2023-03-31T08:29:43.030Z,99407.00
2023-03-31T08:32:13.065Z,99410.00
2023-03-31T08:34:46.441Z,99402.00
2023-03-31T08:37:16.381Z,99392.00
2023-03-31T08:39:46.349Z,99395.00
2023-03-31T08:42:23.983Z,99379.00
2023-03-31T08:45:02.407Z,99386.00
2023-03-31T08:47:36.676Z,99378.00
2023-03-31T08:50:15.981Z,99376.00
2023-03-31T08:52:51.691Z,99373.00
2023-03-31T08:55:32.448Z,99374.00
2023-03-31T08:58:11.013Z,99364.00
2023-03-31T09:00:49.801Z,99356.00
2023-03-31T09:03:27.077Z,99356.00
2023-03-31T09:06:04.986Z,99349.00
2023-03-31T09:08:38.676Z,99344.00
2023-03-31T09:11:16.612Z,99340.00
2023-03-31T09:14:26.175Z,99346.00
2023-03-31T09:17:05.653Z,99343.00
2023-03-31T09:19:41.195Z,99338.00
2023-03-31T09:22:21.600Z,99349.00
2023-03-31T09:24:59.147Z,99339.00
2023-03-31T09:27:35.496Z,99344.00
2023-03-31T09:30:12.351Z,99334.00
2023-03-31T09:32:43.265Z,99326.00
2023-03-31T09:35:21.885Z,99323.00
2023-03-31T09:37:55.802Z,99326.00
2023-03-31T09:40:28.691Z,99306.00
2023-03-31T09:43:03.225Z,99296.00
2023-03-31T09:45:34.154Z,99292.00
2023-03-31T09:48:10.922Z,99287.00
2023-03-31T09:50:47.570Z,99292.00
2023-03-31T09:53:26.296Z,99288.00
2023-03-31T09:55:58.621Z,99279.00
2023-03-31T09:58:28.568Z,99280.00
2023-03-31T10:01:10.082Z,99278.00
2023-03-31T10:03:55.604Z,99279.00
2023-03-31T10:06:27.239Z,99288.00
2023-03-31T10:09:02.832Z,99266.00
2023-03-31T10:11:33.026Z,99275.00
2023-03-31T10:14:06.380Z,99266.00
2023-03-31T10:16:47.996Z,99273.00
2023-03-31T10:19:25.451Z,99262.00
2023-03-31T10:22:01.021Z,99257.00
2023-03-31T10:24:42.226Z,99249.00
2023-03-31T10:27:24.652Z,99250.00
2023-03-31T10:29:59.368Z,99248.00
2023-03-31T10:32:32.237Z,99245.00
2023-03-31T10:35:09.209Z,99232.00
2023-03-31T10:37:40.955Z,99230.00
2023-03-31T10:40:18.510Z,99220.00
2023-03-31T10:42:51.962Z,99226.00
2023-03-31T10:45:37.312Z,99216.00
2023-03-31T10:48:20.973Z,99211.00
2023-03-31T10:50:51.708Z,99209.00
2023-03-31T10:53:22.804Z,99208.00
2023-03-31T10:56:13.780Z,99208.00
2023-03-31T10:59:05.084Z,99193.00
2023-03-31T11:01:48.163Z,99191.00
2023-03-31T11:04:53.227Z,99197.00
2023-03-31T11:07:49.020Z,99194.00
2023-03-31T11:10:37.060Z,99192.00
2023-03-31T11:13:15.994Z,99177.00
2023-03-31T11:15:56.672Z,99182.00
2023-03-31T11:18:42.071Z,99173.00
2023-03-31T11:21:23.157Z,99175.00
2023-03-31T11:24:04.744Z,99180.00
2023-03-31T11:26:47.011Z,99169.00
2023-03-31T11:29:35.997Z,99154.00
2023-03-31T11:32:33.590Z,99159.00
2023-03-31T11:35:24.018Z,99148.00
2023-03-31T11:38:13.237Z,99141.00
2023-03-31T11:40:57.463Z,99141.00
2023-03-31T11:43:33.360Z,99125.00
2023-03-31T11:46:12.592Z,99128.00
2023-03-31T11:48:48.406Z,99122.00
2023-03-31T11:51:24.761Z,99110.00
2023-03-31T11:53:59.408Z,99109.00
2023-03-31T11:56:34.856Z,99111.00
2023-03-31T11:59:05.723Z,99107.00
2023-03-31T12:01:47.127Z,99097.00
2023-03-31T12:04:33.824Z,99100.00
2023-03-31T12:07:12.028Z,99099.00
2023-03-31T12:09:56.064Z,99089.00
2023-03-31T12:12:31.708Z,99084.00
2023-03-31T12:15:13.027Z,99082.00
2023-03-31T12:17:49.011Z,99083.00
2023-03-31T12:20:31.636Z,99082.00
2023-03-31T12:23:03.222Z,99068.00
2023-03-31T12:25:47.552Z,99060.00
2023-03-31T12:28:18.829Z,99065.00
2023-03-31T12:30:53.714Z,99058.00
2023-03-31T12:33:32.864Z,99052.00
2023-03-31T12:36:21.062Z,99044.00
2023-03-31T12:39:05.544Z,99040.00
2023-03-31T12:41:43.580Z,99035.00
2023-03-31T12:44:36.296Z,99032.00
2023-03-31T12:47:41.974Z,99036.00
2023-03-31T12:50:34.350Z,99034.00
2023-03-31T12:53:16.107Z,99036.00
2023-03-31T12:55:49.619Z,99034.00
2023-03-31T12:58:46.146Z,99035.00
2023-03-31T13:01:26.092Z,99030.00
2023-03-31T13:04:11.868Z,99032.00
2023-03-31T13:07:00.070Z,99039.00
2023-03-31T13:09:48.215Z,99037.00
2023-03-31T13:12:21.568Z,99035.00
2023-03-31T13:15:00.394Z,99036.00
2023-03-31T13:17:34.680Z,99034.00
2023-03-31T13:20:33.289Z,99032.00
2023-03-31T13:23:19.988Z,99031.00
2023-03-31T13:25:52.379Z,99020.00
2023-03-31T13:28:42.749Z,99018.00
2023-03-31T13:31:16.182Z,99017.00
2023-03-31T13:33:59.971Z,99019.00
2023-03-31T13:37:02.603Z,99016.00
2023-03-31T13:40:08.368Z,99012.00
2023-03-31T13:43:09.612Z,99013.00
2023-03-31T13:46:08.759Z,99013.00
2023-03-31T13:48:54.159Z,99019.00
2023-03-31T13:51:37.481Z,99012.00
2023-03-31T13:54:56.066Z,99014.00
2023-03-31T13:58:03.245Z,99014.00
2023-03-31T14:00:51.367Z,99003.00
2023-03-31T14:03:33.605Z,99002.00
2023-03-31T14:06:08.538Z,99002.00
2023-03-31T14:08:51.960Z,99003.00
2023-03-31T14:11:27.278Z,99004.00
2023-03-31T14:14:14.699Z,98996.00
2023-03-31T14:16:49.372Z,99002.00
2023-03-31T14:19:42.363Z,98997.00
2023-03-31T14:22:23.007Z,98993.00
2023-03-31T14:25:01.312Z,98997.00
2023-03-31T14:27:49.908Z,98993.00
2023-03-31T14:30:34.753Z,98992.00
2023-03-31T14:33:22.005Z,98997.00
2023-03-31T14:35:59.519Z,98993.00
2023-03-31T14:38:32.368Z,98993.00
2023-03-31T14:41:03.920Z,98989.00
2023-03-31T14:43:38.047Z,98990.00
2023-03-31T14:46:12.485Z,98986.00
2023-03-31T14:48:48.488Z,98983.00
2023-03-31T14:51:21.744Z,98992.00
2023-03-31T14:53:51.697Z,98987.00
2023-03-31T14:56:29.844Z,98980.00
2023-03-31T14:58:59.942Z,98988.00
2023-03-31T15:01:37.877Z,98985.00
2023-03-31T15:04:13.379Z,98983.00
2023-03-31T15:06:48.890Z,98985.00
2023-03-31T15:09:23.814Z,98992.00
2023-03-31T15:12:00.778Z,98983.00
2023-03-31T15:14:34.607Z,98977.00
2023-03-31T15:17:07.173Z,98985.00
2023-03-31T15:19:38.554Z,98980.00
2023-03-31T15:22:16.511Z,98979.00
2023-03-31T15:24:46.625Z,98980.00
2023-03-31T15:30:20.735Z,98975.00
2023-03-31T15:35:43.976Z,98972.00
2023-03-31T15:38:18.820Z,98974.00
2023-03-31T15:40:54.890Z,98981.00
2023-03-31T15:43:33.250Z,98979.00
2023-03-31T15:46:04.738Z,98982.00
2023-03-31T15:48:41.243Z,98972.00
2023-03-31T15:51:22.942Z,98973.00
2023-03-31T15:53:55.069Z,98971.00
2023-03-31T15:56:35.050Z,98968.00
2023-03-31T15:59:08.001Z,98968.00
2023-03-31T16:01:41.468Z,98977.00
2023-03-31T16:04:17.022Z,98962.00
2023-03-31T16:06:50.635Z,98968.00
2023-03-31T16:09:25.966Z,98974.00
2023-03-31T16:11:59.373Z,98966.00
2023-03-31T16:14:36.167Z,98966.00
2023-03-31T16:17:10.952Z,98971.00
2023-03-31T16:19:49.011Z,98953.00
2023-03-31T16:22:25.475Z,98964.00
2023-03-31T16:24:55.495Z,98961.00
2023-03-31T16:27:26.381Z,98955.00
2023-03-31T16:30:11.988Z,98956.00
2023-03-31T16:32:42.041Z,98960.00
2023-03-31T16:35:14.658Z,98952.00
2023-03-31T16:37:44.625Z,98952.00
2023-03-31T16:40:14.566Z,98952.00
2023-03-31T16:42:44.485Z,98957.00
2023-03-31T16:45:15.124Z,98969.00
2023-03-31T16:50:37.691Z,98963.00
2023-03-31T16:53:07.698Z,98964.00
2023-03-31T16:55:37.977Z,98961.00
2023-03-31T16:58:07.927Z,98961.00
2023-03-31T17:00:40.733Z,98963.00
2023-03-31T17:03:12.768Z,98962.00
2023-03-31T17:05:48.890Z,98963.00
2023-03-31T17:08:19.169Z,98954.00
2023-03-31T17:10:56.324Z,98963.00
2023-03-31T17:13:26.507Z,98964.00
2023-03-31T17:16:04.572Z,98957.00
2023-03-31T17:18:43.018Z,98971.00
2023-03-31T17:21:19.481Z,98963.00
2023-03-31T17:23:50.145Z,98971.00
2023-03-31T17:26:20.673Z,98977.00
2023-03-31T17:28:50.746Z,98973.00
2023-03-31T17:31:22.838Z,98976.00
2023-03-31T17:33:53.035Z,98973.00
2023-03-31T17:36:25.671Z,98965.00
2023-03-31T17:38:55.928Z,98970.00
2023-03-31T17:41:26.091Z,98966.00
2023-03-31T17:43:56.502Z,98974.00
2023-03-31T17:46:27.562Z,98965.00
2023-03-31T17:48:58.606Z,98972.00
2023-03-31T17:51:34.612Z,98965.00
2023-03-31T17:54:04.589Z,98968.00
2023-03-31T17:56:34.794Z,98965.00
2023-03-31T17:59:04.775Z,98972.00
2023-03-31T18:01:34.744Z,98971.00
2023-03-31T18:04:05.035Z,98977.00
2023-03-31T18:06:37.580Z,98981.00
2023-03-31T18:09:08.766Z,98974.00
2023-03-31T18:11:39.031Z,98977.00
2023-03-31T18:14:09.310Z,98978.00
2023-03-31T18:16:39.686Z,98982.00
2023-03-31T18:19:09.716Z,98978.00
2023-03-31T18:21:42.277Z,98978.00
2023-03-31T18:24:13.814Z,98988.00
2023-03-31T18:26:43.907Z,98991.00
2023-03-31T18:29:13.836Z,98990.00
2023-03-31T18:31:43.912Z,98990.00
2023-03-31T18:34:14.771Z,98991.00
2023-03-31T18:36:47.339Z,98982.00
2023-03-31T18:39:17.472Z,98989.00
2023-03-31T18:41:50.176Z,98985.00
2023-03-31T18:44:21.823Z,98987.00
2023-03-31T18:46:52.157Z,98988.00
2023-03-31T18:49:22.791Z,98991.00
2023-03-31T18:51:56.130Z,98980.00
2023-03-31T18:54:26.255Z,98989.00
2023-03-31T18:56:56.751Z,98992.00
2023-03-31T18:59:27.108Z,98997.00
2023-03-31T19:01:57.172Z,98986.00
2023-03-31T19:04:27.178Z,98986.00
2023-03-31T19:06:59.777Z,98995.00
2023-03-31T19:09:29.765Z,98995.00
2023-03-31T19:12:00.044Z,98989.00
2023-03-31T19:14:30.385Z,98982.00
2023-03-31T19:17:00.460Z,98987.00
2023-03-31T19:19:30.450Z,98991.00
2023-03-31T19:22:02.992Z,98990.00
2023-03-31T19:24:33.221Z,98995.00
2023-03-31T19:27:03.412Z,98993.00
2023-03-31T19:29:35.368Z,98997.00
2023-03-31T19:32:06.305Z,98997.00
2023-03-31T19:34:36.579Z,98995.00
2023-03-31T19:37:09.782Z,98991.00
2023-03-31T19:39:40.528Z,98996.00
2023-03-31T19:42:10.631Z,98993.00
2023-03-31T19:44:41.143Z,98996.00
2023-03-31T19:47:11.357Z,99000.00
2023-03-31T19:49:41.794Z,98993.00
2023-03-31T19:52:14.344Z,98995.00
2023-03-31T19:54:44.808Z,98997.00
2023-03-31T19:57:16.353Z,98987.00
2023-03-31T19:59:46.466Z,99001.00
2023-03-31T20:02:16.940Z,98998.00
2023-03-31T20:04:47.185Z,98998.00
2023-03-31T20:07:19.921Z,98996.00
2023-03-31T20:09:49.887Z,98993.00
2023-03-31T20:12:19.943Z,98994.00
2023-03-31T20:14:49.883Z,99002.00
2023-03-31T20:17:20.741Z,98998.00
2023-03-31T20:19:50.688Z,98987.00
2023-03-31T20:22:23.222Z,98993.00
2023-03-31T20:24:53.182Z,98991.00
2023-03-31T20:27:26.387Z,98998.00
2023-03-31T20:29:56.628Z,98998.00
2023-03-31T20:32:26.902Z,98985.00
2023-03-31T20:34:58.109Z,98987.00
2023-03-31T20:37:30.707Z,98981.00
2023-03-31T20:40:00.640Z,98980.00
2023-03-31T20:42:30.739Z,98982.00
2023-03-31T20:45:00.685Z,98978.00
2023-03-31T20:47:30.658Z,98979.00
2023-03-31T20:50:00.717Z,98972.00
2023-03-31T20:52:33.277Z,98975.00
2023-03-31T20:55:03.244Z,98974.00
2023-03-31T20:57:33.247Z,98979.00
2023-03-31T21:00:04.104Z,98972.00
2023-03-31T21:02:34.065Z,98979.00
2023-03-31T21:05:04.214Z,98984.00
2023-03-31T21:07:36.783Z,98985.00
2023-03-31T21:10:07.535Z,98991.00
2023-03-31T21:12:38.151Z,98987.00
2023-03-31T21:15:09.681Z,98989.00
2023-03-31T21:17:39.661Z,98991.00
2023-03-31T21:20:12.296Z,98989.00
2023-03-31T21:22:44.825Z,98991.00
2023-03-31T21:25:14.742Z,98989.00
2023-03-31T21:27:44.688Z,98991.00
2023-03-31T21:30:17.293Z,98994.00
2023-03-31T21:32:47.532Z,98986.00
2023-03-31T21:35:18.467Z,98993.00
2023-03-31T21:37:51.172Z,98992.00
2023-03-31T21:40:22.173Z,98997.00
2023-03-31T21:42:52.148Z,98991.00
2023-03-31T21:45:22.097Z,98994.00
2023-03-31T21:47:52.655Z,99003.00
2023-03-31T21:50:22.933Z,99002.00
2023-03-31T21:52:55.965Z,98994.00
2023-03-31T21:55:26.360Z,98991.00
2023-03-31T21:57:56.337Z,98996.00
2023-03-31T22:00:26.828Z,98994.00
2023-03-31T22:03:16.186Z,98998.00
2023-03-31T22:05:47.627Z,99004.00
2023-03-31T22:08:20.191Z,99004.00
2023-03-31T22:10:52.208Z,99002.00
2023-03-31T22:13:22.893Z,98997.00
2023-03-31T22:15:53.336Z,99007.00
2023-03-31T22:18:24.723Z,99005.00
2023-03-31T22:20:54.895Z,99007.00
2023-03-31T22:23:27.873Z,99015.00
2023-03-31T22:25:58.356Z,99009.00
2023-03-31T22:28:28.946Z,99013.00
2023-03-31T22:30:58.880Z,99013.00
2023-03-31T22:33:28.812Z,99007.00
2023-03-31T22:35:58.804Z,99015.00
2023-03-31T22:38:31.364Z,99027.00
2023-03-31T22:41:01.707Z,99009.00
2023-03-31T22:43:31.886Z,99010.00
2023-03-31T22:46:06.767Z,99013.00
2023-03-31T22:48:37.422Z,99016.00
2023-03-31T22:51:09.018Z,99019.00
2023-03-31T22:53:41.690Z,99010.00
2023-03-31T22:56:14.807Z,99019.00
2023-03-31T22:58:44.795Z,99018.00
2023-03-31T23:01:17.404Z,99022.00
2023-03-31T23:03:48.643Z,99019.00
2023-03-31T23:06:19.757Z,99024.00
2023-03-31T23:08:52.683Z,99021.00
2023-03-31T23:11:23.110Z,99026.00
2023-03-31T23:13:53.948Z,99027.00
2023-03-31T23:16:27.277Z,99022.00
2023-03-31T23:18:58.411Z,99023.00
2023-03-31T23:21:31.660Z,99033.00
2023-03-31T23:24:05.925Z,99029.00
2023-03-31T23:26:36.854Z,99034.00
2023-03-31T23:29:07.371Z,99027.00
2023-03-31T23:31:37.338Z,99035.00
2023-03-31T23:34:07.341Z,99029.00
2023-03-31T23:36:37.277Z,99032.00
2023-03-31T23:39:10.740Z,99037.00
2023-03-31T23:41:40.895Z,99029.00
2023-03-31T23:44:12.192Z,99033.00
2023-03-31T23:46:44.351Z,99035.00
2023-03-31T23:49:15.121Z,99035.00
2023-03-31T23:51:45.140Z,99031.00
2023-03-31T23:54:17.709Z,99032.00
2023-03-31T23:56:47.688Z,99027.00
2023-03-31T23:59:18.065Z,99032.00
